Time;durP1;ratioP1;P1;durP2;ratioP2;P2;SDS_P1;SDS_P2;PMS_P1;PMS_P2;Temp;Humidity;BMP_temperature;BMP_pressure;BME280_temperature;BME280_humidity;BME280_pressure;Samples;Min_cycle;Max_cycle;Signal;HPM_P1;HPM_P2
2022/12/31 00:00:16;;;;;;;1.08;0.80;;;;;18.10;100054.00;;;;5051600;28;20196;-78
2022/12/31 00:02:43;;;;;;;0.85;0.60;;;;;18.10;100064.00;;;;5051876;28;20552;-79
2022/12/31 00:05:11;;;;;;;1.25;0.80;;;;;18.10;100063.00;;;;5054049;28;20220;-79
2022/12/31 00:07:39;;;;;;;0.70;0.70;;;;;18.10;100061.00;;;;5053441;28;20211;-79
2022/12/31 00:10:07;;;;;;;1.00;0.90;;;;;18.10;100059.00;;;;5058120;28;20206;-79
2022/12/31 00:12:35;;;;;;;1.30;0.93;;;;;18.10;100059.00;;;;5049881;28;20204;-79
2022/12/31 00:15:02;;;;;;;2.03;1.10;;;;;18.10;100063.00;;;;5069741;28;20649;-78
2022/12/31 00:17:31;;;;;;;1.80;1.10;;;;;18.10;100061.00;;;;5070452;28;20222;-78
2022/12/31 00:19:58;;;;;;;1.17;0.90;;;;;18.10;100058.00;;;;5059727;28;20206;-79
2022/12/31 00:22:25;;;;;;;2.42;1.20;;;;;18.10;100065.00;;;;5050482;28;20200;-79
2022/12/31 00:24:52;;;;;;;0.88;0.80;;;;;18.00;100068.00;;;;5049783;28;20219;-78
2022/12/31 00:27:21;;;;;;;0.93;0.77;;;;;18.00;100076.00;;;;5049944;28;20200;-78
2022/12/31 00:29:48;;;;;;;0.68;0.55;;;;;18.00;100076.00;;;;5052645;28;20210;-79
2022/12/31 00:32:15;;;;;;;1.20;0.88;;;;;18.00;100078.00;;;;5056539;28;20215;-78
2022/12/31 00:34:44;;;;;;;1.05;0.50;;;;;17.90;100077.00;;;;5049627;28;20192;-79
2022/12/31 00:37:11;;;;;;;1.27;0.32;;;;;17.90;100076.00;;;;5050335;28;20255;-78
2022/12/31 00:39:38;;;;;;;0.70;0.43;;;;;17.90;100069.00;;;;5053721;28;20203;-78
2022/12/31 00:42:06;;;;;;;2.40;0.50;;;;;17.90;100061.00;;;;5068774;28;20686;-79
2022/12/31 00:44:33;;;;;;;0.82;0.73;;;;;17.90;100080.00;;;;5063334;28;20230;-78
2022/12/31 00:47:00;;;;;;;1.42;0.70;;;;;17.80;100081.00;;;;5063319;28;20666;-79
2022/12/31 00:49:27;;;;;;;0.95;0.57;;;;;17.80;100076.00;;;;5050655;28;20199;-78
2022/12/31 00:51:56;;;;;;;0.75;0.50;;;;;17.80;100084.00;;;;5050645;28;20187;-79
2022/12/31 00:54:23;;;;;;;0.80;0.80;;;;;17.80;100083.00;;;;5050415;28;20192;-78
2022/12/31 00:56:50;;;;;;;1.00;0.73;;;;;17.80;100087.00;;;;5050641;28;20223;-79
2022/12/31 00:59:18;;;;;;;1.52;0.70;;;;;17.80;100082.00;;;;5049840;28;20570;-78
2022/12/31 01:01:45;;;;;;;1.73;0.60;;;;;17.90;100070.00;;;;5062069;28;20207;-78
2022/12/31 01:04:14;;;;;;;1.73;0.93;;;;;17.80;100063.00;;;;5064506;28;20226;-78
2022/12/31 01:06:42;;;;;;;1.00;0.60;;;;;17.90;100074.00;;;;5050266;28;20204;-78
2022/12/31 01:09:12;;;;;;;1.10;0.90;;;;;17.80;100081.00;;;;5050722;28;20199;-78
2022/12/31 01:11:39;;;;;;;1.27;0.80;;;;;17.90;100069.00;;;;5049553;28;20206;-78
2022/12/31 01:14:08;;;;;;;1.13;0.68;;;;;17.90;100064.00;;;;5050137;28;20203;-78
2022/12/31 01:16:39;;;;;;;0.93;0.88;;;;;17.90;100076.00;;;;5049088;28;20227;-78
2022/12/31 01:19:08;;;;;;;1.17;1.08;;;;;17.90;100068.00;;;;5050083;28;20196;-78
2022/12/31 01:21:37;;;;;;;1.00;0.90;;;;;17.90;100073.00;;;;5048844;28;20210;-78
2022/12/31 01:24:05;;;;;;;1.58;1.00;;;;;17.90;100061.00;;;;5049183;28;20203;-78
2022/12/31 01:26:34;;;;;;;3.00;1.10;;;;;17.90;100068.00;;;;5047665;28;20227;-78
2022/12/31 01:29:01;;;;;;;0.95;0.80;;;;;17.90;100081.00;;;;5057264;28;20199;-78
2022/12/31 01:31:29;;;;;;;2.13;1.20;;;;;17.90;100067.00;;;;5059518;28;20203;-78
2022/12/31 01:33:57;;;;;;;1.42;1.00;;;;;17.90;100070.00;;;;5049487;28;20204;-78
2022/12/31 01:36:27;;;;;;;2.45;1.35;;;;;17.90;100077.00;;;;5049509;28;20214;-78
2022/12/31 01:38:57;;;;;;;1.60;1.00;;;;;17.90;100067.00;;;;5061118;28;20610;-78
2022/12/31 01:41:27;;;;;;;1.52;1.20;;;;;17.90;100069.00;;;;5069665;28;20198;-78
2022/12/31 01:43:58;;;;;;;1.83;1.15;;;;;17.90;100079.00;;;;5050439;28;20298;-78
2022/12/31 01:46:32;;;;;;;1.35;1.13;;;;;17.90;100082.00;;;;5048883;28;20294;-78
2022/12/31 01:49:02;;;;;;;0.80;0.73;;;;;17.90;100076.00;;;;5049224;28;20679;-78
2022/12/31 01:51:33;;;;;;;2.80;1.20;;;;;17.90;100082.00;;;;5048352;28;20196;-78
2022/12/31 01:54:01;;;;;;;2.38;1.20;;;;;17.90;100085.00;;;;5049217;28;20584;-78
2022/12/31 01:56:29;;;;;;;3.05;1.08;;;;;17.90;100090.00;;;;5060801;28;20219;-78
2022/12/31 01:58:58;;;;;;;1.25;1.05;;;;;17.80;100105.00;;;;5048563;28;20199;-78
2022/12/31 02:01:28;;;;;;;1.30;0.90;;;;;17.90;100103.00;;;;5048250;28;20200;-78
2022/12/31 02:03:56;;;;;;;1.90;1.10;;;;;17.90;100107.00;;;;5048759;28;20199;-78
2022/12/31 02:06:28;;;;;;;1.60;0.88;;;;;17.80;100101.00;;;;5048708;28;20199;-78
2022/12/31 02:08:57;;;;;;;1.10;0.90;;;;;17.80;100091.00;;;;5048234;28;20581;-78
2022/12/31 02:11:27;;;;;;;3.03;1.00;;;;;17.80;100082.00;;;;5047991;28;20203;-78
2022/12/31 02:13:58;;;;;;;1.52;0.65;;;;;17.80;100086.00;;;;5068006;28;20210;-78
2022/12/31 02:16:34;;;;;;;0.82;0.57;;;;;17.80;100079.00;;;;5068928;28;20237;-78
2022/12/31 02:19:18;;;;;;;1.10;0.55;;;;;17.70;100065.00;;;;5068476;28;20202;-78
2022/12/31 02:21:53;;;;;;;2.92;0.70;;;;;17.70;100079.00;;;;5066260;28;20201;-78
2022/12/31 02:24:51;;;;;;;2.70;0.40;;;;;17.70;100081.00;;;;5068126;28;20191;-78
2022/12/31 02:27:29;;;;;;;0.60;0.30;;;;;17.70;100067.00;;;;5044419;28;20191;-78
2022/12/31 02:30:19;;;;;;;0.70;0.30;;;;;17.60;100064.00;;;;5049173;28;20214;-78
2022/12/31 02:32:57;;;;;;;0.95;0.35;;;;;17.70;100055.00;;;;5066552;28;20210;-78
2022/12/31 02:35:29;;;;;;;0.82;0.20;;;;;17.70;100051.00;;;;5067979;28;20206;-78
2022/12/31 02:38:03;;;;;;;1.23;0.30;;;;;17.70;100042.00;;;;5059897;28;20298;-78
2022/12/31 02:40:34;;;;;;;0.82;0.20;;;;;17.70;100037.00;;;;5047241;28;20203;-78
2022/12/31 02:43:02;;;;;;;0.80;0.20;;;;;17.70;100039.00;;;;5047733;28;20195;-78
2022/12/31 02:45:35;;;;;;;0.13;0.10;;;;;17.60;100039.00;;;;5047902;28;20709;-78
2022/12/31 02:48:20;;;;;;;1.65;0.45;;;;;17.60;100073.00;;;;5048604;28;20207;-78
2022/12/31 02:50:59;;;;;;;1.55;0.40;;;;;17.50;100081.00;;;;5047756;28;20211;-78
2022/12/31 02:53:45;;;;;;;0.85;0.40;;;;;17.50;100080.00;;;;5047308;28;20199;-78
2022/12/31 02:56:22;;;;;;;1.55;0.30;;;;;17.50;100077.00;;;;5047359;28;20203;-78
2022/12/31 03:04:34;;;;;;;0.95;0.40;;;;;17.50;100109.00;;;;5059441;28;20210;-78
2022/12/31 03:07:04;;;;;;;1.60;0.75;;;;;17.50;100106.00;;;;5067317;28;20257;-78
2022/12/31 03:09:31;;;;;;;1.17;0.20;;;;;17.50;100114.00;;;;5065754;28;20620;-78
2022/12/31 03:14:44;;;;;;;1.55;0.30;;;;;17.50;100110.00;;;;5047902;28;20573;-78
2022/12/31 03:17:13;;;;;;;1.10;0.50;;;;;17.50;100112.00;;;;5046950;28;20818;-77
2022/12/31 03:22:28;;;;;;;1.85;0.20;;;;;17.40;100111.00;;;;5047452;28;20684;-78
2022/12/31 03:27:47;;;;;;;1.17;0.40;;;;;17.40;100112.00;;;;5047619;28;20210;-77
2022/12/31 03:30:16;;;;;;;2.05;0.50;;;;;17.40;100115.00;;;;5048027;28;20195;-78
2022/12/31 03:32:46;;;;;;;1.33;0.45;;;;;17.30;100114.00;;;;5052762;28;20202;-78
2022/12/31 03:35:15;;;;;;;1.73;0.43;;;;;17.30;100101.00;;;;5054934;28;20441;-78
2022/12/31 03:37:43;;;;;;;0.77;0.30;;;;;17.30;100107.00;;;;5048677;28;20219;-78
2022/12/31 03:40:12;;;;;;;0.73;0.50;;;;;17.30;100112.00;;;;5047792;28;20215;-78
2022/12/31 03:42:39;;;;;;;0.73;0.50;;;;;17.30;100112.00;;;;5048104;28;20191;-78
2022/12/31 03:45:08;;;;;;;0.68;0.43;;;;;17.20;100103.00;;;;5047995;28;20314;-78
2022/12/31 03:47:35;;;;;;;0.93;0.32;;;;;17.20;100100.00;;;;5046904;28;20208;-78
2022/12/31 03:50:05;;;;;;;0.93;0.30;;;;;17.20;100099.00;;;;5050989;28;20191;-78
2022/12/31 03:52:32;;;;;;;1.27;0.30;;;;;17.20;100093.00;;;;5067094;28;20195;-78
2022/12/31 03:55:00;;;;;;;1.08;0.47;;;;;17.20;100089.00;;;;5055038;28;20208;-78
2022/12/31 03:57:29;;;;;;;1.38;0.32;;;;;17.20;100098.00;;;;5047459;28;20337;-78
2022/12/31 03:59:56;;;;;;;2.65;0.50;;;;;17.20;100103.00;;;;5047713;28;20195;-78
2022/12/31 04:02:23;;;;;;;2.03;0.70;;;;;17.20;100100.00;;;;5047191;28;20196;-78
2022/12/31 04:04:50;;;;;;;1.10;0.50;;;;;17.20;100093.00;;;;5063199;28;20210;-78
2022/12/31 04:07:19;;;;;;;1.60;0.50;;;;;17.20;100084.00;;;;5067223;28;20202;-78
2022/12/31 04:09:46;;;;;;;3.80;0.50;;;;;17.20;100087.00;;;;5060446;28;20219;-78
2022/12/31 04:12:13;;;;;;;1.02;0.55;;;;;17.20;100093.00;;;;5047923;28;20204;-78
2022/12/31 04:14:41;;;;;;;0.52;0.45;;;;;17.20;100083.00;;;;5048089;28;20184;-78
2022/12/31 04:17:08;;;;;;;0.90;0.68;;;;;17.20;100078.00;;;;5057838;28;20203;-78
2022/12/31 04:19:36;;;;;;;0.75;0.60;;;;;17.20;100067.00;;;;5065267;28;20199;-78
2022/12/31 04:22:04;;;;;;;1.85;0.60;;;;;17.20;100052.00;;;;5071288;28;20282;-78
2022/12/31 04:24:32;;;;;;;0.90;0.55;;;;;17.20;100049.00;;;;5070241;28;20693;-78
2022/12/31 04:27:00;;;;;;;0.80;0.45;;;;;17.20;100056.00;;;;5070830;28;20203;-78
2022/12/31 04:29:28;;;;;;;1.13;0.70;;;;;17.20;100055.00;;;;5055122;28;20207;-77
2022/12/31 04:31:55;;;;;;;0.82;0.75;;;;;17.20;100054.00;;;;5062167;28;20196;-78
2022/12/31 04:34:22;;;;;;;1.35;0.82;;;;;17.20;100056.00;;;;5070495;28;20199;-78
2022/12/31 04:36:50;;;;;;;1.83;1.00;;;;;17.20;100052.00;;;;5070554;28;20678;-78
2022/12/31 04:39:17;;;;;;;1.40;1.13;;;;;17.20;100056.00;;;;5065144;28;20220;-78
2022/12/31 04:41:45;;;;;;;1.63;0.60;;;;;17.20;100067.00;;;;5060559;28;20195;-78
2022/12/31 04:44:13;;;;;;;1.67;0.60;;;;;17.20;100062.00;;;;5070263;28;20746;-78
2022/12/31 04:46:40;;;;;;;1.42;0.95;;;;;17.20;100064.00;;;;5059318;28;20195;-78
2022/12/31 04:49:08;;;;;;;0.90;0.43;;;;;17.20;100079.00;;;;5070545;28;20246;-78
2022/12/31 04:51:35;;;;;;;0.60;0.50;;;;;17.20;100058.00;;;;5070675;28;20195;-78
2022/12/31 04:54:03;;;;;;;0.80;0.50;;;;;17.20;100066.00;;;;5070662;28;20198;-78
2022/12/31 04:56:31;;;;;;;2.03;0.70;;;;;17.20;100053.00;;;;5061970;28;20207;-78
2022/12/31 04:59:00;;;;;;;0.75;0.50;;;;;17.20;100050.00;;;;5060755;28;20254;-78
2022/12/31 05:01:27;;;;;;;0.60;0.50;;;;;17.20;100056.00;;;;5069236;28;20198;-78
2022/12/31 05:03:55;;;;;;;0.82;0.70;;;;;17.20;100059.00;;;;5050375;28;20838;-78
2022/12/31 05:06:23;;;;;;;0.90;0.80;;;;;17.20;100063.00;;;;5050651;28;20214;-78
2022/12/31 05:08:51;;;;;;;2.67;0.90;;;;;17.20;100076.00;;;;5050621;28;20196;-78
2022/12/31 05:11:18;;;;;;;1.55;1.08;;;;;17.20;100068.00;;;;5056531;28;20206;-78
2022/12/31 05:13:45;;;;;;;0.90;0.80;;;;;17.20;100058.00;;;;5070477;28;20211;-78
2022/12/31 05:16:14;;;;;;;0.75;0.73;;;;;17.20;100055.00;;;;5067724;28;20561;-78
2022/12/31 05:18:41;;;;;;;1.13;1.02;;;;;17.20;100076.00;;;;5050420;28;20224;-78
2022/12/31 05:21:09;;;;;;;0.80;0.75;;;;;17.20;100067.00;;;;5050037;28;20689;-78
2022/12/31 05:23:37;;;;;;;1.20;1.08;;;;;17.20;100049.00;;;;5053568;28;20665;-78
2022/12/31 05:26:04;;;;;;;1.45;1.15;;;;;17.20;100080.00;;;;5068178;28;20215;-78
2022/12/31 05:28:32;;;;;;;0.90;0.82;;;;;17.20;100069.00;;;;5070060;28;20195;-78
2022/12/31 05:30:59;;;;;;;1.70;1.00;;;;;17.20;100089.00;;;;5070165;28;20252;-78
2022/12/31 05:33:28;;;;;;;1.17;0.80;;;;;17.20;100067.00;;;;5068490;28;20635;-78
2022/12/31 05:35:57;;;;;;;1.05;0.80;;;;;17.30;100095.00;;;;5065727;28;20206;-78
2022/12/31 05:38:24;;;;;;;1.00;0.75;;;;;17.30;100115.00;;;;5049048;28;20227;-78
2022/12/31 05:40:59;;;;;;;0.70;0.60;;;;;17.20;100093.00;;;;5049816;28;20210;-78
2022/12/31 05:43:27;;;;;;;1.00;0.60;;;;;17.30;100087.00;;;;5063457;28;20198;-77
2022/12/31 05:45:54;;;;;;;1.10;1.00;;;;;17.30;100092.00;;;;5059023;28;20203;-78
2022/12/31 05:48:21;;;;;;;1.10;0.52;;;;;17.30;100098.00;;;;5049201;28;20196;-79
2022/12/31 05:50:50;;;;;;;1.50;0.80;;;;;17.40;100081.00;;;;5053155;28;20582;-79
2022/12/31 05:53:18;;;;;;;1.38;0.82;;;;;17.40;100096.00;;;;5061961;28;20589;-78
2022/12/31 05:55:47;;;;;;;2.55;0.57;;;;;17.40;100095.00;;;;5048507;28;20515;-78
2022/12/31 05:58:14;;;;;;;0.50;0.50;;;;;17.40;100105.00;;;;5048507;28;20294;-78
2022/12/31 06:00:42;;;;;;;0.80;0.68;;;;;17.50;100099.00;;;;5049094;28;20214;-78
2022/12/31 06:03:10;;;;;;;0.50;0.45;;;;;17.50;100112.00;;;;5052391;28;20210;-78
2022/12/31 06:05:40;;;;;;;1.02;0.77;;;;;17.50;100093.00;;;;5069133;28;20195;-78
2022/12/31 06:08:09;;;;;;;0.82;0.70;;;;;17.50;100088.00;;;;5068663;28;20233;-78
2022/12/31 06:10:36;;;;;;;0.70;0.47;;;;;17.50;100092.00;;;;5065388;28;20209;-78
2022/12/31 06:13:04;;;;;;;0.55;0.40;;;;;17.60;100095.00;;;;5058059;28;20199;-78
2022/12/31 06:15:32;;;;;;;0.75;0.50;;;;;17.60;100098.00;;;;5048941;28;20710;-78
2022/12/31 06:17:59;;;;;;;0.85;0.70;;;;;17.60;100096.00;;;;5065740;28;20218;-78
2022/12/31 06:20:26;;;;;;;0.88;0.77;;;;;17.60;100096.00;;;;5067993;28;20201;-78
2022/12/31 06:22:54;;;;;;;1.08;0.77;;;;;17.60;100095.00;;;;5048556;28;20443;-78
2022/12/31 06:25:22;;;;;;;0.70;0.60;;;;;17.60;100094.00;;;;5048987;28;20223;-78
2022/12/31 06:27:49;;;;;;;0.85;0.65;;;;;17.70;100099.00;;;;5053311;28;20192;-78
2022/12/31 06:30:17;;;;;;;0.82;0.73;;;;;17.70;100103.00;;;;5048706;28;20206;-78
2022/12/31 06:32:44;;;;;;;0.68;0.63;;;;;17.70;100103.00;;;;5048797;28;20184;-78
2022/12/31 06:35:12;;;;;;;0.90;0.80;;;;;17.70;100109.00;;;;5048084;28;20210;-78
2022/12/31 06:37:39;;;;;;;1.00;0.90;;;;;17.70;100115.00;;;;5053902;28;20202;-78
2022/12/31 06:40:07;;;;;;;1.33;1.13;;;;;17.70;100110.00;;;;5068768;28;20195;-78
2022/12/31 06:42:36;;;;;;;1.17;0.90;;;;;17.70;100111.00;;;;5067521;28;20203;-79
2022/12/31 06:45:04;;;;;;;1.50;1.40;;;;;17.70;100117.00;;;;5063985;28;20239;-78
2022/12/31 06:47:31;;;;;;;1.40;1.10;;;;;17.70;100117.00;;;;5065274;28;20520;-78
2022/12/31 06:49:58;;;;;;;1.30;1.20;;;;;17.80;100115.00;;;;5068791;28;20203;-79
2022/12/31 06:52:25;;;;;;;1.23;1.13;;;;;17.70;100120.00;;;;5048166;28;20203;-79
2022/12/31 06:54:53;;;;;;;1.42;1.13;;;;;17.80;100131.00;;;;5048058;28;20203;-79
2022/12/31 06:57:22;;;;;;;1.08;0.88;;;;;17.80;100139.00;;;;5047813;28;20203;-78
2022/12/31 06:59:51;;;;;;;1.30;0.82;;;;;17.80;100112.00;;;;5048090;28;20697;-78
2022/12/31 07:02:38;;;;;;;0.80;0.77;;;;;17.70;100106.00;;;;5047451;28;20282;-79
2022/12/31 07:05:27;;;;;;;1.90;0.90;;;;;17.70;100103.00;;;;5047907;28;20200;-79
2022/12/31 07:08:05;;;;;;;1.30;0.80;;;;;17.80;100105.00;;;;5047636;28;20195;-79
2022/12/31 07:10:42;;;;;;;0.60;0.45;;;;;17.80;100112.00;;;;5047363;28;20195;-79
2022/12/31 07:13:28;;;;;;;0.60;0.40;;;;;17.80;100116.00;;;;5047772;28;20669;-79
2022/12/31 07:16:19;;;;;;;0.60;0.40;;;;;17.90;100118.00;;;;5048839;28;20198;-78
2022/12/31 07:18:52;;;;;;;0.40;0.32;;;;;18.00;100108.00;;;;5047859;28;20371;-78
2022/12/31 07:21:31;;;;;;;0.50;0.40;;;;;18.00;100098.00;;;;5047058;28;20568;-77
2022/12/31 07:23:59;;;;;;;0.50;0.30;;;;;18.10;100123.00;;;;5067985;28;20191;-78
2022/12/31 07:26:45;;;;;;;1.65;0.40;;;;;18.10;100126.00;;;;5068030;28;20227;-79
2022/12/31 07:29:18;;;;;;;0.35;0.30;;;;;18.20;100124.00;;;;5058847;28;20199;-78
2022/12/31 07:32:01;;;;;;;0.88;0.30;;;;;18.10;100135.00;;;;5058870;28;20202;-78
2022/12/31 07:34:38;;;;;;;0.47;0.47;;;;;18.20;100129.00;;;;5066933;28;20195;-79
2022/12/31 07:37:13;;;;;;;0.73;0.63;;;;;18.30;100126.00;;;;5063476;28;20198;-78
2022/12/31 07:39:56;;;;;;;1.17;0.47;;;;;18.30;100130.00;;;;5067851;28;20244;-77
2022/12/31 07:42:31;;;;;;;0.88;0.45;;;;;18.30;100133.00;;;;5067769;28;20237;-79
2022/12/31 07:45:03;;;;;;;0.82;0.50;;;;;18.40;100129.00;;;;5050184;28;20235;-78
2022/12/31 07:47:33;;;;;;;0.50;0.40;;;;;18.40;100129.00;;;;5048127;28;20654;-78
2022/12/31 07:50:01;;;;;;;0.85;0.55;;;;;18.50;100131.00;;;;5069959;28;20195;-78
2022/12/31 07:52:29;;;;;;;0.80;0.43;;;;;18.50;100136.00;;;;5063669;28;20673;-78
2022/12/31 07:54:56;;;;;;;0.40;0.40;;;;;18.50;100138.00;;;;5052566;28;20195;-78
2022/12/31 07:57:26;;;;;;;0.60;0.47;;;;;18.50;100141.00;;;;5051954;28;20195;-78
2022/12/31 08:00:05;;;;;;;0.38;0.30;;;;;18.50;100131.00;;;;5067055;28;20751;-78
2022/12/31 08:03:01;;;;;;;1.08;0.20;;;;;18.50;100139.00;;;;5050853;28;20203;-79
2022/12/31 08:05:34;;;;;;;0.85;0.30;;;;;18.60;100146.00;;;;5047450;28;20601;-79
2022/12/31 08:08:13;;;;;;;0.57;0.25;;;;;18.60;100145.00;;;;5051498;28;20572;-79
2022/12/31 08:10:50;;;;;;;0.45;0.20;;;;;18.60;100148.00;;;;5053472;28;20214;-78
2022/12/31 08:13:18;;;;;;;0.43;0.28;;;;;18.70;100161.00;;;;5050948;28;20199;-78
2022/12/31 08:15:46;;;;;;;0.90;0.40;;;;;18.70;100156.00;;;;5051555;28;20218;-79
2022/12/31 08:18:15;;;;;;;0.35;0.30;;;;;18.70;100155.00;;;;5059239;28;20199;-79
2022/12/31 08:20:49;;;;;;;0.65;0.30;;;;;18.70;100151.00;;;;5051020;28;20198;-79
2022/12/31 08:23:25;;;;;;;0.77;0.20;;;;;18.70;100163.00;;;;5051680;28;20203;-79
2022/12/31 08:26:18;;;;;;;0.60;0.30;;;;;18.60;100166.00;;;;5054935;28;20246;-79
2022/12/31 08:28:57;;;;;;;0.88;0.20;;;;;18.70;100169.00;;;;5070445;28;20237;-78
2022/12/31 08:31:33;;;;;;;0.30;0.30;;;;;18.70;100194.00;;;;5058700;28;20230;-78
2022/12/31 08:34:14;;;;;;;0.35;0.17;;;;;18.70;100202.00;;;;5051455;28;20199;-78
2022/12/31 08:36:50;;;;;;;0.38;0.10;;;;;18.70;100220.00;;;;5070094;28;20206;-80
2022/12/31 08:39:28;;;;;;;3.20;0.15;;;;;18.70;100224.00;;;;5063545;28;20225;-79
2022/12/31 08:42:01;;;;;;;0.60;0.20;;;;;18.70;100224.00;;;;5050618;28;20195;-78
2022/12/31 08:44:38;;;;;;;0.45;0.30;;;;;18.70;100229.00;;;;5050910;28;20232;-80
2022/12/31 08:47:18;;;;;;;0.43;0.15;;;;;18.70;100230.00;;;;5050820;28;20787;-78
2022/12/31 08:49:47;;;;;;;0.57;0.10;;;;;18.70;100246.00;;;;5050603;28;20245;-78
2022/12/31 08:52:25;;;;;;;0.10;0.00;;;;;18.60;100234.00;;;;5063365;28;20199;-81
2022/12/31 08:54:54;;;;;;;0.32;0.20;;;;;18.70;100254.00;;;;5070368;28;20198;-79
2022/12/31 08:57:27;;;;;;;0.73;0.20;;;;;18.70;100254.00;;;;5068136;28;20228;-79
2022/12/31 09:00:04;;;;;;;2.55;0.30;;;;;18.60;100274.00;;;;5056103;28;20219;-78
2022/12/31 09:02:49;;;;;;;0.80;0.30;;;;;18.60;100279.00;;;;5051467;28;20195;-79
2022/12/31 09:05:23;;;;;;;0.30;0.20;;;;;18.60;100275.00;;;;5049661;28;20206;-79
2022/12/31 09:08:03;;;;;;;0.20;0.10;;;;;18.60;100284.00;;;;5050277;28;20206;-79
2022/12/31 09:10:34;;;;;;;1.15;0.10;;;;;18.70;100292.00;;;;5058794;28;20297;-77
2022/12/31 09:13:08;;;;;;;0.95;0.20;;;;;18.60;100288.00;;;;5070010;28;20199;-77
2022/12/31 09:15:41;;;;;;;1.20;0.30;;;;;18.60;100294.00;;;;5068528;28;20206;-77
2022/12/31 09:18:09;;;;;;;0.25;0.10;;;;;18.70;100289.00;;;;5052719;28;20222;-79
2022/12/31 09:20:39;;;;;;;0.60;0.30;;;;;18.70;100296.00;;;;5049405;28;20786;-77
2022/12/31 09:23:07;;;;;;;0.82;0.28;;;;;18.70;100290.00;;;;5050646;28;20196;-78
2022/12/31 09:25:37;;;;;;;0.45;0.17;;;;;18.70;100288.00;;;;5049393;28;20227;-78
2022/12/31 09:28:14;;;;;;;0.52;0.20;;;;;18.70;100285.00;;;;5049975;28;20195;-78
2022/12/31 09:30:48;;;;;;;1.52;0.47;;;;;18.70;100287.00;;;;5057937;28;20199;-77
2022/12/31 09:33:31;;;;;;;0.88;0.28;;;;;18.70;100288.00;;;;5049132;28;20203;-78
2022/12/31 09:36:03;;;;;;;1.63;0.70;;;;;18.70;100288.00;;;;5049655;28;20187;-78
2022/12/31 09:38:39;;;;;;;3.75;0.60;;;;;18.70;100289.00;;;;5049347;28;20534;-78
2022/12/31 09:41:15;;;;;;;1.30;0.40;;;;;18.80;100282.00;;;;5049980;28;20219;-77
2022/12/31 09:44:21;;;;;;;0.85;0.47;;;;;18.70;100288.00;;;;5049615;28;20596;-77
2022/12/31 09:47:37;;;;;;;1.23;0.20;;;;;18.80;100289.00;;;;5023376;28;20218;-77
2022/12/31 09:50:34;;;;;;;1.60;0.38;;;;;18.80;100295.00;;;;5069115;28;20187;-77
2022/12/31 09:53:34;;;;;;;2.13;0.30;;;;;18.80;100301.00;;;;5049222;28;20188;-78
2022/12/31 09:56:11;;;;;;;1.88;0.35;;;;;19.00;100297.00;;;;5046413;28;20203;-78
2022/12/31 09:58:46;;;;;;;0.98;0.50;;;;;19.00;100305.00;;;;5047717;28;20204;-77
2022/12/31 10:01:34;;;;;;;1.25;0.40;;;;;19.00;100309.00;;;;5051165;28;20208;-78
2022/12/31 10:04:33;;;;;;;1.73;0.40;;;;;19.00;100313.00;;;;5048933;28;20187;-77
2022/12/31 10:07:10;;;;;;;1.45;0.60;;;;;19.10;100311.00;;;;5047873;28;20203;-78
2022/12/31 10:09:55;;;;;;;2.35;0.40;;;;;19.20;100298.00;;;;5056757;28;20207;-78
2022/12/31 10:12:44;;;;;;;0.43;0.17;;;;;19.20;100324.00;;;;5047196;28;20195;-77
2022/12/31 10:15:32;;;;;;;0.80;0.30;;;;;19.30;100310.00;;;;5049249;28;20203;-78
2022/12/31 10:18:09;;;;;;;1.52;0.40;;;;;19.30;100311.00;;;;5048779;28;20188;-77
2022/12/31 10:20:51;;;;;;;0.57;0.20;;;;;19.40;100304.00;;;;5047963;28;20234;-77
2022/12/31 10:23:49;;;;;;;0.65;0.20;;;;;19.40;100311.00;;;;5048231;28;20238;-78
2022/12/31 10:26:37;;;;;;;2.92;0.75;;;;;19.40;100303.00;;;;5048180;28;20227;-77
2022/12/31 10:29:15;;;;;;;0.90;0.20;;;;;19.50;100306.00;;;;5048246;28;20202;-77
2022/12/31 10:31:51;;;;;;;0.45;0.30;;;;;19.50;100313.00;;;;5047880;28;20596;-77
2022/12/31 10:34:30;;;;;;;1.02;0.50;;;;;19.60;100311.00;;;;5050601;28;20222;-78
2022/12/31 10:37:08;;;;;;;1.27;0.50;;;;;19.60;100306.00;;;;5048139;28;20199;-77
2022/12/31 10:39:47;;;;;;;1.85;0.47;;;;;19.60;100308.00;;;;5050235;28;20218;-78
2022/12/31 10:42:59;;;;;;;1.13;0.30;;;;;19.60;100314.00;;;;5061784;28;20199;-78
2022/12/31 10:46:16;;;;;;;1.23;0.20;;;;;19.60;100299.00;;;;5027338;28;20227;-77
2022/12/31 10:49:23;;;;;;;1.67;0.20;;;;;19.70;100304.00;;;;5057983;28;20203;-77
2022/12/31 10:52:28;;;;;;;0.93;0.40;;;;;19.70;100302.00;;;;5041534;28;20206;-77
2022/12/31 10:55:30;;;;;;;0.98;0.32;;;;;19.70;100311.00;;;;5048368;28;20207;-77
2022/12/31 10:58:29;;;;;;;1.30;0.73;;;;;19.80;100297.00;;;;5048004;28;20198;-77
2022/12/31 11:01:04;;;;;;;1.27;0.55;;;;;19.80;100311.00;;;;5067471;28;20222;-77
2022/12/31 11:04:17;;;;;;;1.70;0.60;;;;;19.80;100318.00;;;;5067670;28;20194;-78
2022/12/31 11:07:15;;;;;;;2.80;0.77;;;;;19.80;100309.00;;;;5048560;28;20486;-77
2022/12/31 11:10:08;;;;;;;1.00;0.40;;;;;19.80;100315.00;;;;5047749;28;20203;-77
2022/12/31 11:13:01;;;;;;;1.10;0.40;;;;;19.80;100305.00;;;;5065874;28;20584;-78
2022/12/31 11:15:46;;;;;;;3.20;0.73;;;;;19.90;100304.00;;;;5066857;28;20210;-78
2022/12/31 11:18:24;;;;;;;1.65;0.50;;;;;19.90;100303.00;;;;5048154;28;20192;-78
2022/12/31 11:21:06;;;;;;;1.00;0.45;;;;;19.90;100305.00;;;;5047666;28;20226;-78
2022/12/31 11:23:43;;;;;;;2.70;0.52;;;;;19.90;100306.00;;;;5048367;28;20207;-78
2022/12/31 11:26:21;;;;;;;1.33;0.50;;;;;19.90;100312.00;;;;5052058;28;20585;-78
2022/12/31 11:29:13;;;;;;;2.15;0.30;;;;;19.90;100314.00;;;;5051259;28;20657;-78
2022/12/31 11:32:00;;;;;;;2.28;0.40;;;;;19.90;100298.00;;;;5039167;28;20212;-78
2022/12/31 11:34:51;;;;;;;2.72;0.50;;;;;19.90;100314.00;;;;5053101;28;20223;-78
2022/12/31 11:37:32;;;;;;;1.20;0.50;;;;;19.90;100316.00;;;;5072178;28;20217;-78
2022/12/31 11:40:15;;;;;;;1.52;0.60;;;;;20.00;100319.00;;;;5071454;28;20222;-77
2022/12/31 11:42:51;;;;;;;2.08;0.50;;;;;20.00;100331.00;;;;5069715;28;20195;-78
2022/12/31 11:45:38;;;;;;;1.75;0.70;;;;;19.90;100310.00;;;;5070372;28;20598;-78
2022/12/31 11:48:12;;;;;;;0.95;0.52;;;;;20.00;100315.00;;;;5071914;28;20194;-78
2022/12/31 11:50:50;;;;;;;1.02;0.60;;;;;20.00;100325.00;;;;5057729;28;20203;-78
2022/12/31 11:53:42;;;;;;;2.83;0.70;;;;;20.00;100334.00;;;;5055205;28;20203;-78
2022/12/31 11:56:16;;;;;;;2.13;0.50;;;;;20.00;100334.00;;;;5050875;28;20207;-78
2022/12/31 11:58:47;;;;;;;3.13;0.80;;;;;20.10;100312.00;;;;5051078;28;20210;-78
2022/12/31 12:01:19;;;;;;;2.72;0.63;;;;;20.10;100321.00;;;;5051438;28;20231;-78
2022/12/31 12:03:47;;;;;;;2.08;0.68;;;;;20.20;100319.00;;;;5050518;28;20195;-78
2022/12/31 12:06:18;;;;;;;5.07;0.70;;;;;20.20;100323.00;;;;5071090;28;20664;-78
2022/12/31 12:08:46;;;;;;;4.00;0.90;;;;;20.20;100304.00;;;;5051981;28;20204;-77
2022/12/31 12:11:20;;;;;;;1.40;0.50;;;;;20.20;100316.00;;;;5051113;28;20211;-78
2022/12/31 12:13:47;;;;;;;2.60;1.08;;;;;20.20;100311.00;;;;5050326;28;20188;-77
2022/12/31 12:16:15;;;;;;;1.90;0.60;;;;;20.20;100315.00;;;;5050824;28;20662;-78
2022/12/31 12:18:46;;;;;;;2.83;1.05;;;;;20.20;100295.00;;;;5050985;28;20187;-78
2022/12/31 12:21:17;;;;;;;2.50;0.80;;;;;20.20;100306.00;;;;5050498;28;20223;-78
2022/12/31 12:23:55;;;;;;;1.25;0.63;;;;;20.20;100309.00;;;;5050696;28;20209;-77
2022/12/31 12:26:34;;;;;;;1.67;0.98;;;;;20.20;100305.00;;;;5049855;28;20635;-78
2022/12/31 12:29:10;;;;;;;1.67;0.70;;;;;20.10;100317.00;;;;5051170;28;20244;-78
2022/12/31 12:31:38;;;;;;;2.60;0.60;;;;;20.20;100315.00;;;;5057003;28;20213;-77
2022/12/31 12:34:06;;;;;;;3.72;1.17;;;;;20.20;100308.00;;;;5068670;28;20233;-77
2022/12/31 12:36:35;;;;;;;2.22;0.70;;;;;20.20;100304.00;;;;5049943;28;20204;-77
2022/12/31 12:39:03;;;;;;;3.58;0.57;;;;;20.20;100311.00;;;;5050685;28;20204;-77
2022/12/31 12:41:30;;;;;;;7.15;0.90;;;;;20.20;100309.00;;;;5050418;28;20235;-77
2022/12/31 12:44:07;;;;;;;3.28;0.88;;;;;20.10;100302.00;;;;5049467;28;20231;-77
2022/12/31 12:46:38;;;;;;;3.38;1.10;;;;;20.10;100310.00;;;;5050121;28;20587;-78
2022/12/31 12:49:06;;;;;;;3.33;1.00;;;;;20.10;100307.00;;;;5055505;28;20693;-76
2022/12/31 12:52:01;;;;;;;4.20;1.00;;;;;20.00;100314.00;;;;5057678;28;20187;-78
2022/12/31 12:54:40;;;;;;;2.53;0.60;;;;;20.00;100312.00;;;;5070078;28;20207;-77